CheckWX is a tool to help pilots better visualize weather data.  It is not intended as a substitute for an official pre-flight weather briefing.

15:02:51 UTC

M25 METAR
Mayfield Graves County Airport
Mayfield, Kentucky, USA
Current

8 mins ago

KM25 221455Z AUTO 25012G18KT 10SM CLR 12/05 A2999 RMK AO2
Observed
Oct-22 @ 14:55 UTC
Wind
  • 250° at 12 KTS
  • Gusting to 18 KTS
Visibility
10 SM
Flight Rules
VFR
Cloud Levels
  • Clear skies
Temperature
12°C / 54°F
Dewpoint
C / 41°F
Humidity
63%
Altimeter
29.99" Hg
Pressure
1015.62 hPa
Previous

48 mins ago

KM25 221415Z AUTO 25009KT 10SM CLR 11/06 A2998 RMK AO2
Observed
Oct-22 @ 14:15 UTC
Wind
  • 250° at 9 KTS
Visibility
10 SM
Flight Rules
VFR
Cloud Levels
  • Clear skies
Temperature
11°C / 52°F
Dewpoint
C / 43°F
Humidity
72%
Altimeter
29.98" Hg
Pressure
1015.22 hPa
Previous

1 hour ago

KM25 221355Z AUTO 26011G15KT 10SM CLR 11/05 A2997 RMK AO2
Observed
Oct-22 @ 13:55 UTC
Wind
  • 260° at 11 KTS
  • Gusting to 15 KTS
Visibility
10 SM
Flight Rules
VFR
Cloud Levels
  • Clear skies
Temperature
11°C / 52°F
Dewpoint
C / 41°F
Humidity
67%
Altimeter
29.97" Hg
Pressure
1014.92 hPa